sensor_id;sensor_type;location;lat;lon;timestamp;temperature;humidity
42019;DHT22;27703;51.980;5.848;2023-03-21T00:00:38;10.00;99.90
42019;DHT22;27703;51.980;5.848;2023-03-21T00:03:04;10.00;99.90
42019;DHT22;27703;51.980;5.848;2023-03-21T00:05:30;9.90;99.90
42019;DHT22;27703;51.980;5.848;2023-03-21T00:07:56;9.90;99.90
42019;DHT22;27703;51.980;5.848;2023-03-21T00:10:22;9.90;99.90
42019;DHT22;27703;51.980;5.848;2023-03-21T00:12:47;9.90;99.90
42019;DHT22;27703;51.980;5.848;2023-03-21T00:15:19;9.90;99.90
42019;DHT22;27703;51.980;5.848;2023-03-21T00:17:45;9.90;99.90
42019;DHT22;27703;51.980;5.848;2023-03-21T00:20:10;9.90;99.90
42019;DHT22;27703;51.980;5.848;2023-03-21T00:22:42;9.90;99.90
42019;DHT22;27703;51.980;5.848;2023-03-21T00:25:08;9.90;99.90
42019;DHT22;27703;51.980;5.848;2023-03-21T00:27:34;9.90;99.90
42019;DHT22;27703;51.980;5.848;2023-03-21T00:30:00;9.90;99.90
42019;DHT22;27703;51.980;5.848;2023-03-21T00:32:25;9.90;99.90
42019;DHT22;27703;51.980;5.848;2023-03-21T00:34:51;9.90;99.90
42019;DHT22;27703;51.980;5.848;2023-03-21T00:37:17;9.90;99.90
42019;DHT22;27703;51.980;5.848;2023-03-21T00:39:43;9.90;99.90
42019;DHT22;27703;51.980;5.848;2023-03-21T00:42:12;9.90;99.90
42019;DHT22;27703;51.980;5.848;2023-03-21T00:44:37;9.80;99.90
42019;DHT22;27703;51.980;5.848;2023-03-21T00:47:05;9.90;99.90
42019;DHT22;27703;51.980;5.848;2023-03-21T00:49:30;9.80;99.90
42019;DHT22;27703;51.980;5.848;2023-03-21T00:52:00;9.80;99.90
42019;DHT22;27703;51.980;5.848;2023-03-21T00:54:26;9.80;99.90
42019;DHT22;27703;51.980;5.848;2023-03-21T00:56:52;9.80;99.90
42019;DHT22;27703;51.980;5.848;2023-03-21T00:59:17;9.80;99.90
42019;DHT22;27703;51.980;5.848;2023-03-21T01:01:43;9.80;99.90
42019;DHT22;27703;51.980;5.848;2023-03-21T01:04:11;9.80;99.90
42019;DHT22;27703;51.980;5.848;2023-03-21T01:06:39;9.80;99.90
42019;DHT22;27703;51.980;5.848;2023-03-21T01:09:06;9.80;99.90
42019;DHT22;27703;51.980;5.848;2023-03-21T01:11:32;9.90;99.90
42019;DHT22;27703;51.980;5.848;2023-03-21T01:13:59;9.80;99.90
42019;DHT22;27703;51.980;5.848;2023-03-21T01:16:24;9.90;99.90
42019;DHT22;27703;51.980;5.848;2023-03-21T01:18:50;9.80;99.90
42019;DHT22;27703;51.980;5.848;2023-03-21T01:21:15;9.80;99.90
42019;DHT22;27703;51.980;5.848;2023-03-21T01:23:41;9.80;99.90
42019;DHT22;27703;51.980;5.848;2023-03-21T01:26:07;9.80;99.90
42019;DHT22;27703;51.980;5.848;2023-03-21T01:28:34;9.80;99.90
42019;DHT22;27703;51.980;5.848;2023-03-21T01:31:00;9.80;99.90
42019;DHT22;27703;51.980;5.848;2023-03-21T01:33:26;9.80;99.90
42019;DHT22;27703;51.980;5.848;2023-03-21T01:35:52;9.80;99.90
42019;DHT22;27703;51.980;5.848;2023-03-21T01:38:17;9.80;99.90
42019;DHT22;27703;51.980;5.848;2023-03-21T01:40:46;9.70;99.90
42019;DHT22;27703;51.980;5.848;2023-03-21T01:48:28;9.70;99.90
42019;DHT22;27703;51.980;5.848;2023-03-21T01:50:54;9.70;99.90
42019;DHT22;27703;51.980;5.848;2023-03-21T01:53:21;9.70;99.90
42019;DHT22;27703;51.980;5.848;2023-03-21T01:55:47;9.70;99.90
42019;DHT22;27703;51.980;5.848;2023-03-21T01:58:14;9.70;99.90
42019;DHT22;27703;51.980;5.848;2023-03-21T02:00:45;9.70;99.90
42019;DHT22;27703;51.980;5.848;2023-03-21T02:03:11;9.70;99.90
42019;DHT22;27703;51.980;5.848;2023-03-21T02:05:49;9.70;99.90
42019;DHT22;27703;51.980;5.848;2023-03-21T02:08:16;9.70;99.90
42019;DHT22;27703;51.980;5.848;2023-03-21T02:10:42;9.70;99.90
42019;DHT22;27703;51.980;5.848;2023-03-21T02:13:09;9.80;99.90
42019;DHT22;27703;51.980;5.848;2023-03-21T02:15:39;9.70;99.90
42019;DHT22;27703;51.980;5.848;2023-03-21T02:18:11;9.80;99.90
42019;DHT22;27703;51.980;5.848;2023-03-21T02:44:16;9.80;99.90
42019;DHT22;27703;51.980;5.848;2023-03-21T02:46:45;9.70;99.90
42019;DHT22;27703;51.980;5.848;2023-03-21T02:51:39;9.70;99.90
42019;DHT22;27703;51.980;5.848;2023-03-21T02:54:07;9.70;99.90
42019;DHT22;27703;51.980;5.848;2023-03-21T02:56:35;9.70;99.90
42019;DHT22;27703;51.980;5.848;2023-03-21T02:59:01;9.70;99.90
42019;DHT22;27703;51.980;5.848;2023-03-21T03:01:28;9.70;99.90
42019;DHT22;27703;51.980;5.848;2023-03-21T03:03:53;9.80;99.90
42019;DHT22;27703;51.980;5.848;2023-03-21T03:06:23;9.80;99.90
42019;DHT22;27703;51.980;5.848;2023-03-21T03:16:53;9.80;99.90
42019;DHT22;27703;51.980;5.848;2023-03-21T03:19:25;9.70;99.90
42019;DHT22;27703;51.980;5.848;2023-03-21T03:21:57;9.70;99.90
42019;DHT22;27703;51.980;5.848;2023-03-21T03:24:26;9.70;99.90
42019;DHT22;27703;51.980;5.848;2023-03-21T03:29:19;9.70;99.90
42019;DHT22;27703;51.980;5.848;2023-03-21T03:31:47;9.70;99.90
42019;DHT22;27703;51.980;5.848;2023-03-21T03:34:17;9.70;99.90
42019;DHT22;27703;51.980;5.848;2023-03-21T03:36:45;9.70;99.90
42019;DHT22;27703;51.980;5.848;2023-03-21T03:39:15;9.70;99.90
42019;DHT22;27703;51.980;5.848;2023-03-21T03:41:44;9.70;99.90
42019;DHT22;27703;51.980;5.848;2023-03-21T03:44:10;9.70;99.90
42019;DHT22;27703;51.980;5.848;2023-03-21T03:46:42;9.70;99.90
42019;DHT22;27703;51.980;5.848;2023-03-21T03:49:12;9.70;99.90
42019;DHT22;27703;51.980;5.848;2023-03-21T03:54:18;9.70;99.90
42019;DHT22;27703;51.980;5.848;2023-03-21T03:56:45;9.60;99.90
42019;DHT22;27703;51.980;5.848;2023-03-21T03:59:11;9.60;99.90
42019;DHT22;27703;51.980;5.848;2023-03-21T04:01:36;9.60;99.90
42019;DHT22;27703;51.980;5.848;2023-03-21T04:04:02;9.60;99.90
42019;DHT22;27703;51.980;5.848;2023-03-21T04:06:27;9.60;99.90
42019;DHT22;27703;51.980;5.848;2023-03-21T04:08:53;9.70;99.90
42019;DHT22;27703;51.980;5.848;2023-03-21T04:11:20;9.60;99.90
42019;DHT22;27703;51.980;5.848;2023-03-21T04:13:46;9.60;99.90
42019;DHT22;27703;51.980;5.848;2023-03-21T04:16:11;9.60;99.90
42019;DHT22;27703;51.980;5.848;2023-03-21T04:18:37;9.70;99.90
42019;DHT22;27703;51.980;5.848;2023-03-21T04:21:06;9.60;99.90
42019;DHT22;27703;51.980;5.848;2023-03-21T04:23:31;9.60;99.90
42019;DHT22;27703;51.980;5.848;2023-03-21T04:25:57;9.60;99.90
42019;DHT22;27703;51.980;5.848;2023-03-21T04:28:22;9.60;99.90
42019;DHT22;27703;51.980;5.848;2023-03-21T04:30:48;9.70;99.90
42019;DHT22;27703;51.980;5.848;2023-03-21T04:33:14;9.60;99.90
42019;DHT22;27703;51.980;5.848;2023-03-21T04:35:39;9.70;99.90
42019;DHT22;27703;51.980;5.848;2023-03-21T04:38:06;9.70;99.90
42019;DHT22;27703;51.980;5.848;2023-03-21T04:40:32;9.70;99.90
42019;DHT22;27703;51.980;5.848;2023-03-21T04:42:57;9.70;99.90
42019;DHT22;27703;51.980;5.848;2023-03-21T04:45:25;9.70;99.90
42019;DHT22;27703;51.980;5.848;2023-03-21T04:47:51;9.70;99.90
42019;DHT22;27703;51.980;5.848;2023-03-21T04:50:16;9.70;99.90
42019;DHT22;27703;51.980;5.848;2023-03-21T04:52:42;9.70;99.90
42019;DHT22;27703;51.980;5.848;2023-03-21T04:55:07;9.70;99.90
42019;DHT22;27703;51.980;5.848;2023-03-21T04:57:35;9.70;99.90
42019;DHT22;27703;51.980;5.848;2023-03-21T05:00:00;9.70;99.90
42019;DHT22;27703;51.980;5.848;2023-03-21T05:02:26;9.70;99.90
42019;DHT22;27703;51.980;5.848;2023-03-21T05:04:51;9.70;99.90
42019;DHT22;27703;51.980;5.848;2023-03-21T05:07:17;9.70;99.90
42019;DHT22;27703;51.980;5.848;2023-03-21T05:09:42;9.70;99.90
42019;DHT22;27703;51.980;5.848;2023-03-21T05:12:08;9.70;99.90
42019;DHT22;27703;51.980;5.848;2023-03-21T05:14:33;9.70;99.90
42019;DHT22;27703;51.980;5.848;2023-03-21T05:16:59;9.70;99.90
42019;DHT22;27703;51.980;5.848;2023-03-21T05:19:30;9.70;99.90
42019;DHT22;27703;51.980;5.848;2023-03-21T05:22:03;9.70;99.90
42019;DHT22;27703;51.980;5.848;2023-03-21T05:24:28;9.60;99.90
42019;DHT22;27703;51.980;5.848;2023-03-21T05:26:54;9.60;99.90
42019;DHT22;27703;51.980;5.848;2023-03-21T05:29:20;9.60;99.90
42019;DHT22;27703;51.980;5.848;2023-03-21T05:31:46;9.60;99.90
42019;DHT22;27703;51.980;5.848;2023-03-21T05:34:11;9.60;99.90
42019;DHT22;27703;51.980;5.848;2023-03-21T05:36:37;9.60;99.90
42019;DHT22;27703;51.980;5.848;2023-03-21T05:39:03;9.60;99.90
42019;DHT22;27703;51.980;5.848;2023-03-21T05:41:28;9.60;99.90
42019;DHT22;27703;51.980;5.848;2023-03-21T05:43:54;9.60;99.90
42019;DHT22;27703;51.980;5.848;2023-03-21T05:46:19;9.60;99.90
42019;DHT22;27703;51.980;5.848;2023-03-21T05:48:45;9.60;99.90
42019;DHT22;27703;51.980;5.848;2023-03-21T05:51:10;9.60;99.90
42019;DHT22;27703;51.980;5.848;2023-03-21T05:53:36;9.50;99.90
42019;DHT22;27703;51.980;5.848;2023-03-21T05:56:01;9.60;99.90
42019;DHT22;27703;51.980;5.848;2023-03-21T05:58:28;9.50;99.90
42019;DHT22;27703;51.980;5.848;2023-03-21T06:00:54;9.60;99.90
42019;DHT22;27703;51.980;5.848;2023-03-21T06:03:20;9.60;99.90
42019;DHT22;27703;51.980;5.848;2023-03-21T06:05:45;9.60;99.90
42019;DHT22;27703;51.980;5.848;2023-03-21T06:08:11;9.60;99.90
42019;DHT22;27703;51.980;5.848;2023-03-21T06:10:36;9.60;99.90
42019;DHT22;27703;51.980;5.848;2023-03-21T06:13:02;9.60;99.90
42019;DHT22;27703;51.980;5.848;2023-03-21T06:15:27;9.60;99.90
42019;DHT22;27703;51.980;5.848;2023-03-21T06:17:53;9.70;99.90
42019;DHT22;27703;51.980;5.848;2023-03-21T06:20:18;9.70;99.90
42019;DHT22;27703;51.980;5.848;2023-03-21T06:22:44;9.70;99.90
42019;DHT22;27703;51.980;5.848;2023-03-21T06:25:09;9.70;99.90
42019;DHT22;27703;51.980;5.848;2023-03-21T06:27:35;9.70;99.90
42019;DHT22;27703;51.980;5.848;2023-03-21T06:30:01;9.70;99.90
42019;DHT22;27703;51.980;5.848;2023-03-21T06:32:27;9.70;99.90
42019;DHT22;27703;51.980;5.848;2023-03-21T06:34:53;9.70;99.90
42019;DHT22;27703;51.980;5.848;2023-03-21T06:37:18;9.70;99.90
42019;DHT22;27703;51.980;5.848;2023-03-21T06:39:44;9.70;99.90
42019;DHT22;27703;51.980;5.848;2023-03-21T06:42:11;9.70;99.90
42019;DHT22;27703;51.980;5.848;2023-03-21T06:44:37;9.70;99.90
42019;DHT22;27703;51.980;5.848;2023-03-21T06:47:02;9.80;99.90
42019;DHT22;27703;51.980;5.848;2023-03-21T06:49:28;9.80;99.90
42019;DHT22;27703;51.980;5.848;2023-03-21T06:51:53;9.80;99.90
42019;DHT22;27703;51.980;5.848;2023-03-21T06:54:19;9.80;99.90
42019;DHT22;27703;51.980;5.848;2023-03-21T06:56:45;9.80;99.90
42019;DHT22;27703;51.980;5.848;2023-03-21T06:59:11;9.90;99.90
42019;DHT22;27703;51.980;5.848;2023-03-21T07:01:36;9.90;99.90
42019;DHT22;27703;51.980;5.848;2023-03-21T07:04:02;9.90;99.90
42019;DHT22;27703;51.980;5.848;2023-03-21T07:06:29;9.90;99.90
42019;DHT22;27703;51.980;5.848;2023-03-21T07:08:54;10.00;99.90
42019;DHT22;27703;51.980;5.848;2023-03-21T07:11:20;9.90;99.90
42019;DHT22;27703;51.980;5.848;2023-03-21T07:13:46;10.00;99.90
42019;DHT22;27703;51.980;5.848;2023-03-21T07:16:13;10.00;99.90
42019;DHT22;27703;51.980;5.848;2023-03-21T07:18:38;10.00;99.90
42019;DHT22;27703;51.980;5.848;2023-03-21T07:21:04;10.00;99.90
42019;DHT22;27703;51.980;5.848;2023-03-21T07:23:29;10.10;99.90
42019;DHT22;27703;51.980;5.848;2023-03-21T07:25:55;10.10;99.90
42019;DHT22;27703;51.980;5.848;2023-03-21T07:28:21;10.10;99.90
42019;DHT22;27703;51.980;5.848;2023-03-21T07:30:51;10.20;99.90
42019;DHT22;27703;51.980;5.848;2023-03-21T07:33:17;10.20;99.90
42019;DHT22;27703;51.980;5.848;2023-03-21T07:35:42;10.20;99.90
42019;DHT22;27703;51.980;5.848;2023-03-21T07:38:07;10.20;99.90
42019;DHT22;27703;51.980;5.848;2023-03-21T07:40:33;10.20;99.90
42019;DHT22;27703;51.980;5.848;2023-03-21T07:42:58;10.20;99.90
42019;DHT22;27703;51.980;5.848;2023-03-21T07:45:24;10.20;99.90
42019;DHT22;27703;51.980;5.848;2023-03-21T07:47:51;10.20;99.90
42019;DHT22;27703;51.980;5.848;2023-03-21T07:50:17;10.20;99.90
42019;DHT22;27703;51.980;5.848;2023-03-21T07:52:42;10.30;99.90
42019;DHT22;27703;51.980;5.848;2023-03-21T07:55:08;10.20;99.90
42019;DHT22;27703;51.980;5.848;2023-03-21T07:57:34;10.20;99.90
42019;DHT22;27703;51.980;5.848;2023-03-21T07:59:59;10.20;99.90
42019;DHT22;27703;51.980;5.848;2023-03-21T08:02:25;10.20;99.90
42019;DHT22;27703;51.980;5.848;2023-03-21T08:04:51;10.20;99.90
42019;DHT22;27703;51.980;5.848;2023-03-21T08:07:16;10.20;99.90
42019;DHT22;27703;51.980;5.848;2023-03-21T08:09:42;10.20;99.90
42019;DHT22;27703;51.980;5.848;2023-03-21T08:12:07;10.20;99.90
42019;DHT22;27703;51.980;5.848;2023-03-21T08:14:33;10.30;99.90
42019;DHT22;27703;51.980;5.848;2023-03-21T08:16:59;10.30;99.90
42019;DHT22;27703;51.980;5.848;2023-03-21T08:19:24;10.20;99.90
42019;DHT22;27703;51.980;5.848;2023-03-21T08:21:51;10.20;99.90
42019;DHT22;27703;51.980;5.848;2023-03-21T08:24:17;10.20;99.90
42019;DHT22;27703;51.980;5.848;2023-03-21T08:26:42;10.30;99.90
42019;DHT22;27703;51.980;5.848;2023-03-21T08:29:10;10.30;99.90
42019;DHT22;27703;51.980;5.848;2023-03-21T08:31:35;10.30;99.90
42019;DHT22;27703;51.980;5.848;2023-03-21T08:34:01;10.30;99.90
42019;DHT22;27703;51.980;5.848;2023-03-21T08:36:26;10.40;99.90
42019;DHT22;27703;51.980;5.848;2023-03-21T08:38:52;10.40;99.90
42019;DHT22;27703;51.980;5.848;2023-03-21T08:41:21;10.40;99.90
42019;DHT22;27703;51.980;5.848;2023-03-21T08:43:48;10.40;99.90
42019;DHT22;27703;51.980;5.848;2023-03-21T08:46:14;10.40;99.90
42019;DHT22;27703;51.980;5.848;2023-03-21T08:48:39;10.40;99.90
42019;DHT22;27703;51.980;5.848;2023-03-21T08:51:05;10.40;99.90
42019;DHT22;27703;51.980;5.848;2023-03-21T08:53:31;10.40;99.90
42019;DHT22;27703;51.980;5.848;2023-03-21T08:55:57;10.40;99.90
42019;DHT22;27703;51.980;5.848;2023-03-21T08:58:22;10.40;99.90
42019;DHT22;27703;51.980;5.848;2023-03-21T09:00:48;10.40;99.90
42019;DHT22;27703;51.980;5.848;2023-03-21T09:03:13;10.40;99.90
42019;DHT22;27703;51.980;5.848;2023-03-21T09:05:39;10.50;99.90
42019;DHT22;27703;51.980;5.848;2023-03-21T09:08:05;10.50;99.90
42019;DHT22;27703;51.980;5.848;2023-03-21T09:10:30;10.50;99.90
42019;DHT22;27703;51.980;5.848;2023-03-21T09:12:56;10.60;99.90
42019;DHT22;27703;51.980;5.848;2023-03-21T09:15:22;10.60;99.90
42019;DHT22;27703;51.980;5.848;2023-03-21T09:17:49;10.70;99.90
42019;DHT22;27703;51.980;5.848;2023-03-21T09:20:17;10.60;99.90
42019;DHT22;27703;51.980;5.848;2023-03-21T09:22:45;10.70;99.90
42019;DHT22;27703;51.980;5.848;2023-03-21T09:25:12;10.70;99.90
42019;DHT22;27703;51.980;5.848;2023-03-21T09:27:38;10.70;99.90
42019;DHT22;27703;51.980;5.848;2023-03-21T09:30:04;10.70;99.90
42019;DHT22;27703;51.980;5.848;2023-03-21T09:32:30;10.70;99.90
42019;DHT22;27703;51.980;5.848;2023-03-21T09:34:55;10.70;99.90
42019;DHT22;27703;51.980;5.848;2023-03-21T09:37:21;10.70;99.90
42019;DHT22;27703;51.980;5.848;2023-03-21T09:39:47;10.70;99.90
42019;DHT22;27703;51.980;5.848;2023-03-21T09:42:17;10.70;99.90
42019;DHT22;27703;51.980;5.848;2023-03-21T09:47:31;10.80;99.90
42019;DHT22;27703;51.980;5.848;2023-03-21T09:50:21;10.80;99.90
42019;DHT22;27703;51.980;5.848;2023-03-21T09:53:05;10.80;99.90
42019;DHT22;27703;51.980;5.848;2023-03-21T09:55:32;10.80;99.90
42019;DHT22;27703;51.980;5.848;2023-03-21T10:00:29;10.90;99.90
42019;DHT22;27703;51.980;5.848;2023-03-21T10:03:00;10.90;99.90
42019;DHT22;27703;51.980;5.848;2023-03-21T10:05:31;10.90;99.90
42019;DHT22;27703;51.980;5.848;2023-03-21T10:10:27;10.90;99.90
42019;DHT22;27703;51.980;5.848;2023-03-21T10:12:54;11.00;99.90
42019;DHT22;27703;51.980;5.848;2023-03-21T10:15:21;11.00;99.90
42019;DHT22;27703;51.980;5.848;2023-03-21T10:17:58;11.10;99.90
42019;DHT22;27703;51.980;5.848;2023-03-21T10:20:34;11.10;99.90
42019;DHT22;27703;51.980;5.848;2023-03-21T10:23:02;11.20;99.90
42019;DHT22;27703;51.980;5.848;2023-03-21T10:25:33;11.30;99.90
42019;DHT22;27703;51.980;5.848;2023-03-21T10:27:59;11.40;99.90
42019;DHT22;27703;51.980;5.848;2023-03-21T10:30:45;11.40;99.90
42019;DHT22;27703;51.980;5.848;2023-03-21T10:33:14;11.40;99.90
42019;DHT22;27703;51.980;5.848;2023-03-21T10:35:40;11.50;99.90
42019;DHT22;27703;51.980;5.848;2023-03-21T10:38:09;11.50;99.90
42019;DHT22;27703;51.980;5.848;2023-03-21T10:40:37;11.50;99.90
42019;DHT22;27703;51.980;5.848;2023-03-21T10:45:46;11.60;99.90
42019;DHT22;27703;51.980;5.848;2023-03-21T10:48:12;11.60;99.90
42019;DHT22;27703;51.980;5.848;2023-03-21T10:50:38;11.70;99.90
42019;DHT22;27703;51.980;5.848;2023-03-21T10:53:06;11.70;99.90
42019;DHT22;27703;51.980;5.848;2023-03-21T10:55:34;11.70;99.90
42019;DHT22;27703;51.980;5.848;2023-03-21T10:58:08;11.70;99.90
42019;DHT22;27703;51.980;5.848;2023-03-21T11:00:39;11.80;99.90
42019;DHT22;27703;51.980;5.848;2023-03-21T11:03:06;11.90;99.90
42019;DHT22;27703;51.980;5.848;2023-03-21T11:05:33;12.00;99.90
42019;DHT22;27703;51.980;5.848;2023-03-21T11:08:02;12.10;99.90
42019;DHT22;27703;51.980;5.848;2023-03-21T11:12:56;12.30;99.90
42019;DHT22;27703;51.980;5.848;2023-03-21T11:15:29;12.30;99.90
42019;DHT22;27703;51.980;5.848;2023-03-21T11:17:56;12.20;99.90
42019;DHT22;27703;51.980;5.848;2023-03-21T11:20:22;12.20;99.90
42019;DHT22;27703;51.980;5.848;2023-03-21T11:22:47;12.20;99.90
42019;DHT22;27703;51.980;5.848;2023-03-21T11:25:35;12.20;99.90
42019;DHT22;27703;51.980;5.848;2023-03-21T11:27:59;12.20;99.90
42019;DHT22;27703;51.980;5.848;2023-03-21T11:30:30;12.20;99.90
42019;DHT22;27703;51.980;5.848;2023-03-21T11:32:57;12.20;99.90
42019;DHT22;27703;51.980;5.848;2023-03-21T11:35:32;12.30;99.90
42019;DHT22;27703;51.980;5.848;2023-03-21T11:37:58;12.30;99.90
42019;DHT22;27703;51.980;5.848;2023-03-21T11:40:25;12.30;99.90
42019;DHT22;27703;51.980;5.848;2023-03-21T11:42:54;12.30;99.90
42019;DHT22;27703;51.980;5.848;2023-03-21T11:45:21;12.30;99.90
42019;DHT22;27703;51.980;5.848;2023-03-21T11:47:47;12.40;99.90
42019;DHT22;27703;51.980;5.848;2023-03-21T11:52:49;12.40;99.90
42019;DHT22;27703;51.980;5.848;2023-03-21T11:55:19;12.50;99.90
42019;DHT22;27703;51.980;5.848;2023-03-21T11:57:51;12.60;99.90
42019;DHT22;27703;51.980;5.848;2023-03-21T12:00:28;12.60;99.90
42019;DHT22;27703;51.980;5.848;2023-03-21T12:05:57;12.70;99.90
42019;DHT22;27703;51.980;5.848;2023-03-21T12:21:01;12.90;99.90
42019;DHT22;27703;51.980;5.848;2023-03-21T12:23:46;12.90;99.90
42019;DHT22;27703;51.980;5.848;2023-03-21T12:31:13;12.90;99.90
42019;DHT22;27703;51.980;5.848;2023-03-21T12:34:17;12.80;99.90
42019;DHT22;27703;51.980;5.848;2023-03-21T12:36:55;12.80;99.90
42019;DHT22;27703;51.980;5.848;2023-03-21T12:39:23;12.80;99.90
42019;DHT22;27703;51.980;5.848;2023-03-21T12:44:18;12.70;99.90
42019;DHT22;27703;51.980;5.848;2023-03-21T12:46:54;12.70;99.90
42019;DHT22;27703;51.980;5.848;2023-03-21T12:52:12;12.80;99.90
42019;DHT22;27703;51.980;5.848;2023-03-21T12:54:40;12.90;99.90
42019;DHT22;27703;51.980;5.848;2023-03-21T12:57:18;13.00;99.90
42019;DHT22;27703;51.980;5.848;2023-03-21T13:07:22;13.30;99.90
42019;DHT22;27703;51.980;5.848;2023-03-21T13:09:49;13.40;99.90
42019;DHT22;27703;51.980;5.848;2023-03-21T13:12:21;13.40;99.90
42019;DHT22;27703;51.980;5.848;2023-03-21T13:15:25;13.40;99.90
42019;DHT22;27703;51.980;5.848;2023-03-21T13:18:01;13.40;99.90
42019;DHT22;27703;51.980;5.848;2023-03-21T13:20:31;13.40;99.90
42019;DHT22;27703;51.980;5.848;2023-03-21T13:22:59;13.40;99.90
42019;DHT22;27703;51.980;5.848;2023-03-21T13:25:25;13.40;99.90
42019;DHT22;27703;51.980;5.848;2023-03-21T13:27:51;13.40;99.90
42019;DHT22;27703;51.980;5.848;2023-03-21T13:30:19;13.40;99.90
42019;DHT22;27703;51.980;5.848;2023-03-21T13:32:45;13.50;99.90
42019;DHT22;27703;51.980;5.848;2023-03-21T13:35:13;13.50;99.90
42019;DHT22;27703;51.980;5.848;2023-03-21T13:37:50;13.60;99.90
42019;DHT22;27703;51.980;5.848;2023-03-21T13:40:20;13.70;99.90
42019;DHT22;27703;51.980;5.848;2023-03-21T13:42:49;13.80;99.90
42019;DHT22;27703;51.980;5.848;2023-03-21T13:45:23;13.80;99.90
42019;DHT22;27703;51.980;5.848;2023-03-21T13:47:53;13.80;99.90
42019;DHT22;27703;51.980;5.848;2023-03-21T13:55:38;14.20;99.90
42019;DHT22;27703;51.980;5.848;2023-03-21T14:03:33;14.10;99.90
42019;DHT22;27703;51.980;5.848;2023-03-21T14:05:59;14.10;99.90
42019;DHT22;27703;51.980;5.848;2023-03-21T14:08:25;14.00;99.90
42019;DHT22;27703;51.980;5.848;2023-03-21T14:10:53;14.10;99.90
42019;DHT22;27703;51.980;5.848;2023-03-21T14:13:21;14.20;99.90
42019;DHT22;27703;51.980;5.848;2023-03-21T14:16:31;14.30;99.90
42019;DHT22;27703;51.980;5.848;2023-03-21T14:18:44;14.30;99.90
42019;DHT22;27703;51.980;5.848;2023-03-21T14:21:14;14.30;99.90
42019;DHT22;27703;51.980;5.848;2023-03-21T14:23:40;14.30;99.90
42019;DHT22;27703;51.980;5.848;2023-03-21T14:26:06;14.30;99.90
42019;DHT22;27703;51.980;5.848;2023-03-21T14:28:34;14.40;99.90
42019;DHT22;27703;51.980;5.848;2023-03-21T14:31:01;14.40;99.90
42019;DHT22;27703;51.980;5.848;2023-03-21T14:33:41;14.40;99.90
42019;DHT22;27703;51.980;5.848;2023-03-21T14:36:50;14.40;99.90
42019;DHT22;27703;51.980;5.848;2023-03-21T14:39:06;14.30;99.90
42019;DHT22;27703;51.980;5.848;2023-03-21T14:41:32;14.20;99.90
42019;DHT22;27703;51.980;5.848;2023-03-21T14:46:39;14.30;99.90
42019;DHT22;27703;51.980;5.848;2023-03-21T14:49:09;14.40;99.90
42019;DHT22;27703;51.980;5.848;2023-03-21T14:51:35;14.40;99.90
42019;DHT22;27703;51.980;5.848;2023-03-21T14:54:01;14.40;99.90
42019;DHT22;27703;51.980;5.848;2023-03-21T14:56:26;14.40;99.90
42019;DHT22;27703;51.980;5.848;2023-03-21T14:58:52;14.30;99.90
42019;DHT22;27703;51.980;5.848;2023-03-21T15:01:28;14.30;99.90
42019;DHT22;27703;51.980;5.848;2023-03-21T15:03:55;14.20;99.90
42019;DHT22;27703;51.980;5.848;2023-03-21T15:06:21;14.10;99.90
42019;DHT22;27703;51.980;5.848;2023-03-21T15:08:57;14.00;99.90
42019;DHT22;27703;51.980;5.848;2023-03-21T15:13:54;14.00;99.90
42019;DHT22;27703;51.980;5.848;2023-03-21T15:16:21;14.00;99.90
42019;DHT22;27703;51.980;5.848;2023-03-21T15:18:46;14.00;99.90
42019;DHT22;27703;51.980;5.848;2023-03-21T15:21:13;13.90;99.90
42019;DHT22;27703;51.980;5.848;2023-03-21T15:23:44;13.90;99.90
42019;DHT22;27703;51.980;5.848;2023-03-21T15:26:14;13.80;99.90
42019;DHT22;27703;51.980;5.848;2023-03-21T15:28:40;13.80;99.90
42019;DHT22;27703;51.980;5.848;2023-03-21T15:31:15;13.80;99.90
42019;DHT22;27703;51.980;5.848;2023-03-21T15:33:43;13.70;99.90
42019;DHT22;27703;51.980;5.848;2023-03-21T15:36:09;13.80;99.90
42019;DHT22;27703;51.980;5.848;2023-03-21T15:38:36;13.70;99.90
42019;DHT22;27703;51.980;5.848;2023-03-21T15:43:45;13.70;99.90
42019;DHT22;27703;51.980;5.848;2023-03-21T15:46:12;13.70;99.90
42019;DHT22;27703;51.980;5.848;2023-03-21T15:48:37;13.70;99.90
42019;DHT22;27703;51.980;5.848;2023-03-21T15:51:04;13.70;99.90
42019;DHT22;27703;51.980;5.848;2023-03-21T15:53:31;13.70;99.90
42019;DHT22;27703;51.980;5.848;2023-03-21T15:55:57;13.70;99.90
42019;DHT22;27703;51.980;5.848;2023-03-21T15:58:31;13.70;99.90
42019;DHT22;27703;51.980;5.848;2023-03-21T16:01:00;13.70;99.90
42019;DHT22;27703;51.980;5.848;2023-03-21T16:03:31;13.80;99.90
42019;DHT22;27703;51.980;5.848;2023-03-21T16:08:41;13.70;99.90
42019;DHT22;27703;51.980;5.848;2023-03-21T16:11:07;13.70;99.90
42019;DHT22;27703;51.980;5.848;2023-03-21T16:13:33;13.70;99.90
42019;DHT22;27703;51.980;5.848;2023-03-21T16:15:58;13.70;99.90
42019;DHT22;27703;51.980;5.848;2023-03-21T16:18:24;13.70;99.90
42019;DHT22;27703;51.980;5.848;2023-03-21T16:20:50;13.70;99.90
42019;DHT22;27703;51.980;5.848;2023-03-21T16:23:15;13.70;99.90
42019;DHT22;27703;51.980;5.848;2023-03-21T16:25:41;13.70;99.90
42019;DHT22;27703;51.980;5.848;2023-03-21T16:28:11;13.70;99.90
42019;DHT22;27703;51.980;5.848;2023-03-21T16:30:38;13.70;99.90
42019;DHT22;27703;51.980;5.848;2023-03-21T16:33:03;13.70;99.90
42019;DHT22;27703;51.980;5.848;2023-03-21T16:35:29;13.70;99.90
42019;DHT22;27703;51.980;5.848;2023-03-21T16:37:54;13.60;99.90
42019;DHT22;27703;51.980;5.848;2023-03-21T16:40:24;13.60;99.90
42019;DHT22;27703;51.980;5.848;2023-03-21T16:42:51;13.50;99.90
42019;DHT22;27703;51.980;5.848;2023-03-21T16:45:17;13.50;99.90
42019;DHT22;27703;51.980;5.848;2023-03-21T16:47:42;13.50;99.90
42019;DHT22;27703;51.980;5.848;2023-03-21T16:50:30;13.50;99.90
42019;DHT22;27703;51.980;5.848;2023-03-21T16:52:55;13.40;99.90
42019;DHT22;27703;51.980;5.848;2023-03-21T16:55:20;13.40;99.90
42019;DHT22;27703;51.980;5.848;2023-03-21T16:57:46;13.30;99.90
42019;DHT22;27703;51.980;5.848;2023-03-21T17:00:13;13.20;99.90
42019;DHT22;27703;51.980;5.848;2023-03-21T17:02:41;13.00;99.90
42019;DHT22;27703;51.980;5.848;2023-03-21T17:05:06;12.80;99.90
42019;DHT22;27703;51.980;5.848;2023-03-21T17:07:32;12.70;99.90
42019;DHT22;27703;51.980;5.848;2023-03-21T17:09:57;12.60;99.90
42019;DHT22;27703;51.980;5.848;2023-03-21T17:12:23;12.60;99.90
42019;DHT22;27703;51.980;5.848;2023-03-21T17:14:48;12.50;99.90
42019;DHT22;27703;51.980;5.848;2023-03-21T17:17:14;12.50;99.90
42019;DHT22;27703;51.980;5.848;2023-03-21T17:19:40;12.50;99.90
42019;DHT22;27703;51.980;5.848;2023-03-21T17:22:06;12.50;99.90
42019;DHT22;27703;51.980;5.848;2023-03-21T17:24:31;12.50;99.90
42019;DHT22;27703;51.980;5.848;2023-03-21T17:26:58;12.40;99.90
42019;DHT22;27703;51.980;5.848;2023-03-21T17:29:24;12.50;99.90
42019;DHT22;27703;51.980;5.848;2023-03-21T17:31:50;12.50;99.90
42019;DHT22;27703;51.980;5.848;2023-03-21T17:34:15;12.50;99.90